sensor_id;sensor_type;location;lat;lon;timestamp;pressure;altitude;pressure_sealevel;temperature;humidity
35806;BME280;21925;44.608;11.580;2023-04-03T00:01:33;101348.53;;;12.08;100.00
35806;BME280;21925;44.608;11.580;2023-04-03T00:04:00;101347.72;;;12.20;100.00
35806;BME280;21925;44.608;11.580;2023-04-03T00:06:26;101358.38;;;12.09;100.00
35806;BME280;21925;44.608;11.580;2023-04-03T00:08:52;101350.53;;;11.76;100.00
35806;BME280;21925;44.608;11.580;2023-04-03T00:11:18;101355.91;;;11.72;100.00
35806;BME280;21925;44.608;11.580;2023-04-03T00:13:45;101343.44;;;11.75;100.00
35806;BME280;21925;44.608;11.580;2023-04-03T00:16:11;101350.97;;;11.45;100.00
35806;BME280;21925;44.608;11.580;2023-04-03T00:18:37;101343.41;;;10.90;100.00
35806;BME280;21925;44.608;11.580;2023-04-03T00:21:04;101347.97;;;11.06;100.00
35806;BME280;21925;44.608;11.580;2023-04-03T00:23:30;101347.75;;;11.11;100.00
35806;BME280;21925;44.608;11.580;2023-04-03T00:25:55;101356.72;;;11.20;100.00
35806;BME280;21925;44.608;11.580;2023-04-03T00:28:22;101347.97;;;11.06;100.00
35806;BME280;21925;44.608;11.580;2023-04-03T00:30:51;101341.00;;;10.88;100.00
35806;BME280;21925;44.608;11.580;2023-04-03T00:33:17;101342.00;;;11.04;100.00
35806;BME280;21925;44.608;11.580;2023-04-03T00:35:43;101345.94;;;10.95;100.00
35806;BME280;21925;44.608;11.580;2023-04-03T00:38:09;101350.09;;;11.21;100.00
35806;BME280;21925;44.608;11.580;2023-04-03T00:40:39;101333.88;;;11.28;100.00
35806;BME280;21925;44.608;11.580;2023-04-03T00:43:24;101351.06;;;11.37;100.00
35806;BME280;21925;44.608;11.580;2023-04-03T00:45:53;101345.78;;;11.32;100.00
35806;BME280;21925;44.608;11.580;2023-04-03T00:48:27;101345.94;;;11.15;100.00
35806;BME280;21925;44.608;11.580;2023-04-03T00:50:54;101335.69;;;11.04;100.00
35806;BME280;21925;44.608;11.580;2023-04-03T00:53:31;101343.41;;;11.10;100.00
35806;BME280;21925;44.608;11.580;2023-04-03T00:55:59;101346.88;;;10.99;100.00
35806;BME280;21925;44.608;11.580;2023-04-03T00:58:40;101337.03;;;10.98;100.00
35806;BME280;21925;44.608;11.580;2023-04-03T01:01:12;101328.41;;;10.67;100.00
35806;BME280;21925;44.608;11.580;2023-04-03T01:03:40;101317.97;;;10.60;100.00
35806;BME280;21925;44.608;11.580;2023-04-03T01:06:06;101325.16;;;10.73;100.00
35806;BME280;21925;44.608;11.580;2023-04-03T01:08:32;101311.56;;;10.97;100.00
35806;BME280;21925;44.608;11.580;2023-04-03T01:10:58;101325.25;;;11.17;100.00
35806;BME280;21925;44.608;11.580;2023-04-03T01:13:32;101323.81;;;11.32;100.00
35806;BME280;21925;44.608;11.580;2023-04-03T01:16:03;101321.84;;;11.00;100.00
35806;BME280;21925;44.608;11.580;2023-04-03T01:18:29;101318.72;;;10.90;100.00
35806;BME280;21925;44.608;11.580;2023-04-03T01:26:17;101300.72;;;10.80;100.00
35806;BME280;21925;44.608;11.580;2023-04-03T01:28:43;101319.94;;;11.33;100.00
35806;BME280;21925;44.608;11.580;2023-04-03T01:33:39;101316.78;;;10.90;100.00
35806;BME280;21925;44.608;11.580;2023-04-03T01:36:05;101309.25;;;10.99;100.00
35806;BME280;21925;44.608;11.580;2023-04-03T01:38:32;101324.28;;;11.02;100.00
35806;BME280;21925;44.608;11.580;2023-04-03T01:40:57;101324.16;;;10.49;100.00
35806;BME280;21925;44.608;11.580;2023-04-03T01:43:23;101321.31;;;10.66;100.00
35806;BME280;21925;44.608;11.580;2023-04-03T01:45:49;101313.09;;;10.86;100.00
35806;BME280;21925;44.608;11.580;2023-04-03T01:48:16;101325.59;;;10.75;100.00
35806;BME280;21925;44.608;11.580;2023-04-03T01:50:42;101325.41;;;10.60;100.00
35806;BME280;21925;44.608;11.580;2023-04-03T01:53:08;101322.84;;;10.55;100.00
35806;BME280;21925;44.608;11.580;2023-04-03T01:55:33;101310.66;;;10.15;100.00
35806;BME280;21925;44.608;11.580;2023-04-03T01:57:59;101319.22;;;10.14;100.00
35806;BME280;21925;44.608;11.580;2023-04-03T02:00:25;101304.94;;;10.29;100.00
35806;BME280;21925;44.608;11.580;2023-04-03T02:02:52;101310.06;;;10.38;100.00
35806;BME280;21925;44.608;11.580;2023-04-03T02:05:17;101308.72;;;10.44;100.00
35806;BME280;21925;44.608;11.580;2023-04-03T02:07:43;101312.00;;;10.99;100.00
35806;BME280;21925;44.608;11.580;2023-04-03T02:10:09;101312.31;;;11.18;100.00
35806;BME280;21925;44.608;11.580;2023-04-03T02:12:34;101308.13;;;11.53;100.00
35806;BME280;21925;44.608;11.580;2023-04-03T02:15:00;101308.38;;;11.07;100.00
35806;BME280;21925;44.608;11.580;2023-04-03T02:17:26;101286.78;;;10.44;100.00
35806;BME280;21925;44.608;11.580;2023-04-03T02:19:54;101297.47;;;10.37;100.00
35806;BME280;21925;44.608;11.580;2023-04-03T02:22:19;101283.88;;;10.21;100.00
35806;BME280;21925;44.608;11.580;2023-04-03T02:24:45;101305.44;;;10.31;100.00
35806;BME280;21925;44.608;11.580;2023-04-03T02:27:11;101306.47;;;10.46;100.00
35806;BME280;21925;44.608;11.580;2023-04-03T02:29:36;101309.69;;;10.48;100.00
35806;BME280;21925;44.608;11.580;2023-04-03T02:32:04;101300.91;;;10.55;100.00
35806;BME280;21925;44.608;11.580;2023-04-03T02:34:30;101304.59;;;10.59;100.00
35806;BME280;21925;44.608;11.580;2023-04-03T02:36:58;101285.06;;;10.60;100.00
35806;BME280;21925;44.608;11.580;2023-04-03T02:39:24;101280.78;;;10.71;100.00
35806;BME280;21925;44.608;11.580;2023-04-03T02:41:49;101289.03;;;10.71;100.00
35806;BME280;21925;44.608;11.580;2023-04-03T02:44:21;101298.97;;;10.96;100.00
35806;BME280;21925;44.608;11.580;2023-04-03T02:46:49;101295.91;;;10.77;100.00
35806;BME280;21925;44.608;11.580;2023-04-03T02:49:16;101276.91;;;10.72;100.00
35806;BME280;21925;44.608;11.580;2023-04-03T02:51:41;101296.44;;;10.71;100.00
35806;BME280;21925;44.608;11.580;2023-04-03T02:54:07;101307.34;;;10.79;100.00
35806;BME280;21925;44.608;11.580;2023-04-03T02:56:35;101294.03;;;10.90;100.00
35806;BME280;21925;44.608;11.580;2023-04-03T02:59:01;101302.09;;;11.07;100.00
35806;BME280;21925;44.608;11.580;2023-04-03T03:01:27;101293.53;;;11.08;100.00
35806;BME280;21925;44.608;11.580;2023-04-03T03:03:57;101296.09;;;11.25;100.00
35806;BME280;21925;44.608;11.580;2023-04-03T03:06:23;101296.19;;;11.49;100.00
35806;BME280;21925;44.608;11.580;2023-04-03T03:08:48;101287.31;;;11.64;100.00
35806;BME280;21925;44.608;11.580;2023-04-03T03:11:14;101299.28;;;11.47;100.00
35806;BME280;21925;44.608;11.580;2023-04-03T03:13:39;101284.97;;;11.10;100.00
35806;BME280;21925;44.608;11.580;2023-04-03T03:16:05;101307.44;;;11.56;100.00
35806;BME280;21925;44.608;11.580;2023-04-03T03:18:31;101310.13;;;11.44;100.00
35806;BME280;21925;44.608;11.580;2023-04-03T03:20:59;101311.09;;;11.27;100.00
35806;BME280;21925;44.608;11.580;2023-04-03T03:23:26;101305.47;;;10.92;100.00
35806;BME280;21925;44.608;11.580;2023-04-03T03:26:00;101293.69;;;10.91;100.00
35806;BME280;21925;44.608;11.580;2023-04-03T03:28:26;101300.59;;;10.97;100.00
35806;BME280;21925;44.608;11.580;2023-04-03T03:30:52;101284.31;;;10.92;100.00
35806;BME280;21925;44.608;11.580;2023-04-03T03:33:19;101297.22;;;11.12;100.00
35806;BME280;21925;44.608;11.580;2023-04-03T03:35:44;101274.03;;;10.89;100.00
35806;BME280;21925;44.608;11.580;2023-04-03T03:38:10;101276.88;;;11.13;100.00
35806;BME280;21925;44.608;11.580;2023-04-03T03:40:36;101306.78;;;11.26;100.00
35806;BME280;21925;44.608;11.580;2023-04-03T03:43:03;101285.34;;;11.20;100.00
35806;BME280;21925;44.608;11.580;2023-04-03T03:45:28;101301.06;;;11.31;100.00
35806;BME280;21925;44.608;11.580;2023-04-03T03:47:55;101295.44;;;11.28;100.00
35806;BME280;21925;44.608;11.580;2023-04-03T03:50:24;101297.53;;;11.43;100.00
35806;BME280;21925;44.608;11.580;2023-04-03T03:52:50;101302.22;;;11.63;100.00
35806;BME280;21925;44.608;11.580;2023-04-03T03:55:16;101285.75;;;11.63;100.00
35806;BME280;21925;44.608;11.580;2023-04-03T03:57:42;101290.56;;;11.90;100.00
35806;BME280;21925;44.608;11.580;2023-04-03T04:00:08;101295.81;;;11.83;100.00
35806;BME280;21925;44.608;11.580;2023-04-03T04:02:41;101303.16;;;11.46;100.00
35806;BME280;21925;44.608;11.580;2023-04-03T04:05:09;101309.75;;;11.54;100.00
35806;BME280;21925;44.608;11.580;2023-04-03T04:07:35;101309.66;;;11.42;100.00
35806;BME280;21925;44.608;11.580;2023-04-03T04:10:02;101300.84;;;11.81;100.00
35806;BME280;21925;44.608;11.580;2023-04-03T04:12:28;101314.25;;;11.50;100.00
35806;BME280;21925;44.608;11.580;2023-04-03T04:14:54;101314.53;;;11.57;100.00
35806;BME280;21925;44.608;11.580;2023-04-03T04:17:21;101300.06;;;11.48;100.00
35806;BME280;21925;44.608;11.580;2023-04-03T04:19:47;101320.97;;;11.61;100.00
35806;BME280;21925;44.608;11.580;2023-04-03T04:22:13;101323.25;;;11.59;100.00
35806;BME280;21925;44.608;11.580;2023-04-03T04:24:39;101309.47;;;11.47;100.00
35806;BME280;21925;44.608;11.580;2023-04-03T04:27:05;101318.78;;;11.54;100.00
35806;BME280;21925;44.608;11.580;2023-04-03T04:29:32;101319.75;;;11.50;100.00
35806;BME280;21925;44.608;11.580;2023-04-03T04:32:02;101316.34;;;11.00;100.00
35806;BME280;21925;44.608;11.580;2023-04-03T04:34:28;101317.94;;;10.89;100.00
35806;BME280;21925;44.608;11.580;2023-04-03T04:36:54;101322.31;;;10.61;100.00
35806;BME280;21925;44.608;11.580;2023-04-03T04:39:20;101337.53;;;10.50;100.00
35806;BME280;21925;44.608;11.580;2023-04-03T04:41:45;101321.69;;;10.07;100.00
35806;BME280;21925;44.608;11.580;2023-04-03T04:44:11;101320.78;;;10.23;100.00
35806;BME280;21925;44.608;11.580;2023-04-03T04:46:37;101334.97;;;10.54;100.00
35806;BME280;21925;44.608;11.580;2023-04-03T04:49:04;101330.88;;;10.60;100.00
35806;BME280;21925;44.608;11.580;2023-04-03T04:51:30;101335.63;;;10.71;100.00
35806;BME280;21925;44.608;11.580;2023-04-03T04:53:56;101335.44;;;10.76;100.00
35806;BME280;21925;44.608;11.580;2023-04-03T04:56:22;101341.78;;;10.68;100.00
35806;BME280;21925;44.608;11.580;2023-04-03T04:58:48;101329.63;;;10.57;100.00
35806;BME280;21925;44.608;11.580;2023-04-03T05:01:16;101333.59;;;10.39;100.00
35806;BME280;21925;44.608;11.580;2023-04-03T05:03:55;101334.72;;;10.38;100.00
35806;BME280;21925;44.608;11.580;2023-04-03T05:06:22;101329.03;;;10.43;100.00
35806;BME280;21925;44.608;11.580;2023-04-03T05:08:48;101341.88;;;10.51;100.00
35806;BME280;21925;44.608;11.580;2023-04-03T05:11:15;101341.50;;;10.61;100.00
35806;BME280;21925;44.608;11.580;2023-04-03T05:13:43;101341.16;;;10.63;100.00
35806;BME280;21925;44.608;11.580;2023-04-03T05:16:08;101341.00;;;10.88;100.00
35806;BME280;21925;44.608;11.580;2023-04-03T05:18:34;101340.31;;;10.91;100.00
35806;BME280;21925;44.608;11.580;2023-04-03T05:21:04;101336.78;;;10.70;100.00
35806;BME280;21925;44.608;11.580;2023-04-03T05:23:30;101344.88;;;10.87;100.00
35806;BME280;21925;44.608;11.580;2023-04-03T05:25:58;101360.66;;;10.70;100.00
35806;BME280;21925;44.608;11.580;2023-04-03T05:28:24;101357.75;;;10.66;100.00
35806;BME280;21925;44.608;11.580;2023-04-03T05:30:54;101351.16;;;10.67;100.00
35806;BME280;21925;44.608;11.580;2023-04-03T05:33:21;101361.34;;;10.58;100.00
35806;BME280;21925;44.608;11.580;2023-04-03T05:35:51;101363.09;;;10.63;100.00
35806;BME280;21925;44.608;11.580;2023-04-03T05:38:22;101354.69;;;10.47;100.00
35806;BME280;21925;44.608;11.580;2023-04-03T05:40:49;101366.13;;;10.49;100.00
35806;BME280;21925;44.608;11.580;2023-04-03T05:43:15;101377.44;;;10.68;100.00
35806;BME280;21925;44.608;11.580;2023-04-03T05:45:43;101381.28;;;10.76;100.00
35806;BME280;21925;44.608;11.580;2023-04-03T05:48:09;101387.50;;;10.85;100.00
35806;BME280;21925;44.608;11.580;2023-04-03T05:50:35;101365.75;;;10.80;100.00
35806;BME280;21925;44.608;11.580;2023-04-03T05:53:02;101374.06;;;11.12;100.00
35806;BME280;21925;44.608;11.580;2023-04-03T05:55:31;101365.19;;;11.47;100.00
35806;BME280;21925;44.608;11.580;2023-04-03T05:57:56;101372.50;;;11.76;100.00
35806;BME280;21925;44.608;11.580;2023-04-03T06:00:22;101362.69;;;11.98;100.00
35806;BME280;21925;44.608;11.580;2023-04-03T06:02:57;101362.75;;;12.34;100.00
35806;BME280;21925;44.608;11.580;2023-04-03T06:05:24;101368.81;;;12.52;100.00
35806;BME280;21925;44.608;11.580;2023-04-03T06:07:49;101374.78;;;12.54;100.00
35806;BME280;21925;44.608;11.580;2023-04-03T06:10:15;101368.88;;;12.79;98.73
35806;BME280;21925;44.608;11.580;2023-04-03T06:12:41;101375.56;;;12.66;99.62
35806;BME280;21925;44.608;11.580;2023-04-03T06:15:07;101373.25;;;12.44;100.00
35806;BME280;21925;44.608;11.580;2023-04-03T06:17:36;101371.91;;;12.38;100.00
35806;BME280;21925;44.608;11.580;2023-04-03T06:20:03;101375.44;;;12.74;100.00
35806;BME280;21925;44.608;11.580;2023-04-03T06:22:29;101373.84;;;12.62;100.00
35806;BME280;21925;44.608;11.580;2023-04-03T06:24:56;101378.31;;;12.90;100.00
35806;BME280;21925;44.608;11.580;2023-04-03T06:27:22;101390.44;;;12.77;100.00
35806;BME280;21925;44.608;11.580;2023-04-03T06:29:48;101355.03;;;12.40;100.00
35806;BME280;21925;44.608;11.580;2023-04-03T06:32:15;101395.75;;;12.58;100.00
35806;BME280;21925;44.608;11.580;2023-04-03T06:34:41;101390.03;;;12.51;100.00
35806;BME280;21925;44.608;11.580;2023-04-03T06:37:14;101381.53;;;12.32;100.00
35806;BME280;21925;44.608;11.580;2023-04-03T06:39:39;101400.66;;;12.88;100.00
35806;BME280;21925;44.608;11.580;2023-04-03T06:42:05;101390.34;;;12.73;100.00
35806;BME280;21925;44.608;11.580;2023-04-03T06:44:37;101385.38;;;13.03;100.00
35806;BME280;21925;44.608;11.580;2023-04-03T06:47:03;101392.53;;;13.58;100.00
35806;BME280;21925;44.608;11.580;2023-04-03T06:49:29;101384.69;;;13.72;100.00
35806;BME280;21925;44.608;11.580;2023-04-03T06:51:54;101388.78;;;13.78;100.00
35806;BME280;21925;44.608;11.580;2023-04-03T06:54:22;101379.94;;;14.31;100.00
35806;BME280;21925;44.608;11.580;2023-04-03T06:56:48;101394.81;;;14.42;100.00
35806;BME280;21925;44.608;11.580;2023-04-03T06:59:13;101389.25;;;14.73;100.00
35806;BME280;21925;44.608;11.580;2023-04-03T07:01:40;101374.00;;;15.13;100.00
35806;BME280;21925;44.608;11.580;2023-04-03T07:04:07;101378.91;;;15.38;98.28
35806;BME280;21925;44.608;11.580;2023-04-03T07:06:33;101392.81;;;15.83;97.36
35806;BME280;21925;44.608;11.580;2023-04-03T07:08:59;101380.03;;;15.75;97.77
35806;BME280;21925;44.608;11.580;2023-04-03T07:11:26;101399.16;;;16.02;96.99
35806;BME280;21925;44.608;11.580;2023-04-03T07:13:52;101377.75;;;15.99;97.64
35806;BME280;21925;44.608;11.580;2023-04-03T07:16:19;101398.53;;;15.71;100.00
35806;BME280;21925;44.608;11.580;2023-04-03T07:18:45;101396.38;;;15.42;100.00
35806;BME280;21925;44.608;11.580;2023-04-03T07:21:11;101410.91;;;15.58;100.00
35806;BME280;21925;44.608;11.580;2023-04-03T07:23:37;101396.59;;;15.94;100.00
35806;BME280;21925;44.608;11.580;2023-04-03T07:26:02;101412.28;;;15.87;100.00
35806;BME280;21925;44.608;11.580;2023-04-03T07:28:28;101409.13;;;15.88;100.00
35806;BME280;21925;44.608;11.580;2023-04-03T07:31:05;101406.03;;;15.71;100.00
35806;BME280;21925;44.608;11.580;2023-04-03T07:33:34;101416.84;;;15.98;100.00
35806;BME280;21925;44.608;11.580;2023-04-03T07:36:01;101417.50;;;16.55;100.00
35806;BME280;21925;44.608;11.580;2023-04-03T07:38:27;101413.25;;;16.39;100.00
35806;BME280;21925;44.608;11.580;2023-04-03T07:40:52;101410.56;;;16.68;100.00
35806;BME280;21925;44.608;11.580;2023-04-03T07:43:19;101427.03;;;16.83;99.83
35806;BME280;21925;44.608;11.580;2023-04-03T07:45:45;101419.03;;;17.04;93.99
35806;BME280;21925;44.608;11.580;2023-04-03T07:48:12;101424.25;;;16.58;91.41
35806;BME280;21925;44.608;11.580;2023-04-03T07:50:42;101428.31;;;16.89;93.27
35806;BME280;21925;44.608;11.580;2023-04-03T07:53:08;101421.50;;;17.09;88.67
35806;BME280;21925;44.608;11.580;2023-04-03T07:55:33;101415.88;;;17.61;88.89
35806;BME280;21925;44.608;11.580;2023-04-03T07:57:59;101426.59;;;18.28;87.86
35806;BME280;21925;44.608;11.580;2023-04-03T08:00:25;101422.13;;;18.20;84.03
35806;BME280;21925;44.608;11.580;2023-04-03T08:02:50;101416.81;;;18.44;86.85
35806;BME280;21925;44.608;11.580;2023-04-03T08:05:18;101431.47;;;18.92;84.83
35806;BME280;21925;44.608;11.580;2023-04-03T08:07:44;101418.44;;;19.06;81.33
35806;BME280;21925;44.608;11.580;2023-04-03T08:10:09;101435.75;;;19.36;81.04
35806;BME280;21925;44.608;11.580;2023-04-03T08:12:41;101436.63;;;18.93;78.58
35806;BME280;21925;44.608;11.580;2023-04-03T08:15:10;101425.44;;;18.79;78.57
35806;BME280;21925;44.608;11.580;2023-04-03T08:17:41;101438.38;;;19.12;77.99
35806;BME280;21925;44.608;11.580;2023-04-03T08:20:07;101440.66;;;19.60;78.56
35806;BME280;21925;44.608;11.580;2023-04-03T08:22:34;101423.25;;;19.84;75.92
35806;BME280;21925;44.608;11.580;2023-04-03T08:24:59;101431.34;;;19.28;75.45
35806;BME280;21925;44.608;11.580;2023-04-03T08:27:26;101420.66;;;19.33;75.49
35806;BME280;21925;44.608;11.580;2023-04-03T08:29:52;101436.66;;;19.54;74.76
35806;BME280;21925;44.608;11.580;2023-04-03T08:32:17;101429.94;;;19.65;75.95
35806;BME280;21925;44.608;11.580;2023-04-03T08:34:44;101439.34;;;19.40;75.72
35806;BME280;21925;44.608;11.580;2023-04-03T08:37:10;101433.75;;;19.33;78.96
35806;BME280;21925;44.608;11.580;2023-04-03T08:39:36;101440.81;;;19.17;77.38
35806;BME280;21925;44.608;11.580;2023-04-03T08:42:07;101442.00;;;19.16;77.96
35806;BME280;21925;44.608;11.580;2023-04-03T08:44:51;101431.84;;;18.90;78.79
35806;BME280;21925;44.608;11.580;2023-04-03T08:50:01;101433.38;;;18.81;79.34
35806;BME280;21925;44.608;11.580;2023-04-03T08:52:46;101436.78;;;19.11;78.06
35806;BME280;21925;44.608;11.580;2023-04-03T08:57:44;101426.00;;;19.06;79.51
35806;BME280;21925;44.608;11.580;2023-04-03T09:02:49;101432.84;;;18.65;77.83
35806;BME280;21925;44.608;11.580;2023-04-03T09:08:18;101442.38;;;18.67;77.34
35806;BME280;21925;44.608;11.580;2023-04-03T09:10:46;101440.78;;;18.66;79.91
35806;BME280;21925;44.608;11.580;2023-04-03T09:13:24;101433.97;;;18.57;77.86
35806;BME280;21925;44.608;11.580;2023-04-03T09:15:53;101432.88;;;18.68;78.76
35806;BME280;21925;44.608;11.580;2023-04-03T09:18:24;101438.38;;;18.61;78.75
35806;BME280;21925;44.608;11.580;2023-04-03T09:21:13;101437.56;;;18.57;79.24
35806;BME280;21925;44.608;11.580;2023-04-03T09:23:45;101438.50;;;18.32;79.03
35806;BME280;21925;44.608;11.580;2023-04-03T09:28:45;101448.81;;;18.32;81.57
35806;BME280;21925;44.608;11.580;2023-04-03T09:31:23;101453.53;;;18.28;81.99
35806;BME280;21925;44.608;11.580;2023-04-03T09:33:53;101448.88;;;18.02;81.27
35806;BME280;21925;44.608;11.580;2023-04-03T09:36:41;101445.72;;;18.04;83.00
35806;BME280;21925;44.608;11.580;2023-04-03T09:39:17;101451.81;;;17.83;82.89
35806;BME280;21925;44.608;11.580;2023-04-03T09:44:31;101446.06;;;17.66;84.37
35806;BME280;21925;44.608;11.580;2023-04-03T09:46:57;101451.78;;;17.80;85.21
35806;BME280;21925;44.608;11.580;2023-04-03T09:49:23;101447.25;;;17.98;85.56
35806;BME280;21925;44.608;11.580;2023-04-03T09:51:49;101443.81;;;17.75;83.13
35806;BME280;21925;44.608;11.580;2023-04-03T09:54:35;101437.66;;;17.59;80.94
35806;BME280;21925;44.608;11.580;2023-04-03T09:57:12;101439.44;;;17.45;74.23
35806;BME280;21925;44.608;11.580;2023-04-03T09:59:57;101434.06;;;17.58;72.42
35806;BME280;21925;44.608;11.580;2023-04-03T10:02:36;101426.19;;;17.60;68.65
35806;BME280;21925;44.608;11.580;2023-04-03T10:05:04;101426.22;;;17.64;69.50
35806;BME280;21925;44.608;11.580;2023-04-03T10:07:35;101425.41;;;17.60;67.95
35806;BME280;21925;44.608;11.580;2023-04-03T10:10:22;101425.34;;;17.57;66.31
35806;BME280;21925;44.608;11.580;2023-04-03T10:13:12;101429.38;;;17.62;66.07
35806;BME280;21925;44.608;11.580;2023-04-03T10:15:43;101423.47;;;18.00;66.03
35806;BME280;21925;44.608;11.580;2023-04-03T10:20:48;101423.56;;;18.11;64.86
35806;BME280;21925;44.608;11.580;2023-04-03T10:23:21;101407.34;;;17.44;64.86
35806;BME280;21925;44.608;11.580;2023-04-03T10:26:00;101418.53;;;17.83;65.84
35806;BME280;21925;44.608;11.580;2023-04-03T10:33:52;101418.38;;;19.56;61.69
35806;BME280;21925;44.608;11.580;2023-04-03T10:36:36;101415.84;;;19.27;61.08
35806;BME280;21925;44.608;11.580;2023-04-03T10:48:02;101402.59;;;19.92;58.30
35806;BME280;21925;44.608;11.580;2023-04-03T10:53:43;101379.31;;;19.35;57.62
35806;BME280;21925;44.608;11.580;2023-04-03T10:56:21;101395.38;;;19.66;56.98
35806;BME280;21925;44.608;11.580;2023-04-03T10:58:57;101396.09;;;19.53;53.76
35806;BME280;21925;44.608;11.580;2023-04-03T11:01:29;101397.75;;;19.68;53.89
35806;BME280;21925;44.608;11.580;2023-04-03T11:03:59;101392.31;;;20.09;56.80
35806;BME280;21925;44.608;11.580;2023-04-03T11:07:08;101384.38;;;20.60;56.99
35806;BME280;21925;44.608;11.580;2023-04-03T11:09:40;101385.97;;;20.26;55.36
35806;BME280;21925;44.608;11.580;2023-04-03T11:12:17;101386.44;;;19.26;54.45
35806;BME280;21925;44.608;11.580;2023-04-03T11:14:47;101379.19;;;20.06;55.77
35806;BME280;21925;44.608;11.580;2023-04-03T11:22:27;101375.59;;;20.93;52.04
35806;BME280;21925;44.608;11.580;2023-04-03T11:25:03;101378.78;;;20.95;52.06
35806;BME280;21925;44.608;11.580;2023-04-03T11:27:37;101370.97;;;21.68;54.74
35806;BME280;21925;44.608;11.580;2023-04-03T11:30:07;101350.16;;;21.83;52.48
35806;BME280;21925;44.608;11.580;2023-04-03T11:32:49;101355.72;;;20.91;49.77
35806;BME280;21925;44.608;11.580;2023-04-03T11:35:17;101369.66;;;20.67;49.21
35806;BME280;21925;44.608;11.580;2023-04-03T11:38:04;101367.25;;;20.76;51.29
35806;BME280;21925;44.608;11.580;2023-04-03T11:40:35;101360.50;;;20.87;50.90
35806;BME280;21925;44.608;11.580;2023-04-03T11:43:15;101350.88;;;21.09;50.64
35806;BME280;21925;44.608;11.580;2023-04-03T11:46:01;101355.53;;;21.47;52.76
35806;BME280;21925;44.608;11.580;2023-04-03T11:50:55;101330.97;;;21.89;51.56
35806;BME280;21925;44.608;11.580;2023-04-03T11:53:35;101341.47;;;22.25;50.05
35806;BME280;21925;44.608;11.580;2023-04-03T11:56:04;101333.41;;;22.78;50.62
35806;BME280;21925;44.608;11.580;2023-04-03T11:58:32;101334.13;;;22.49;51.67
35806;BME280;21925;44.608;11.580;2023-04-03T12:01:07;101338.94;;;22.88;52.44
35806;BME280;21925;44.608;11.580;2023-04-03T12:14:03;101321.47;;;21.83;50.02
35806;BME280;21925;44.608;11.580;2023-04-03T12:16:41;101321.66;;;22.09;48.66
35806;BME280;21925;44.608;11.580;2023-04-03T12:24:32;101306.34;;;20.81;48.35
35806;BME280;21925;44.608;11.580;2023-04-03T12:27:24;101307.38;;;21.29;49.92
35806;BME280;21925;44.608;11.580;2023-04-03T12:30:04;101309.66;;;21.55;49.34
35806;BME280;21925;44.608;11.580;2023-04-03T12:35:44;101299.63;;;21.64;48.28
35806;BME280;21925;44.608;11.580;2023-04-03T12:38:30;101294.72;;;21.82;49.54
35806;BME280;21925;44.608;11.580;2023-04-03T12:41:23;101284.31;;;21.86;48.62
35806;BME280;21925;44.608;11.580;2023-04-03T12:44:33;101292.59;;;22.03;50.41
35806;BME280;21925;44.608;11.580;2023-04-03T12:47:16;101280.16;;;22.11;49.16
35806;BME280;21925;44.608;11.580;2023-04-03T12:49:45;101290.09;;;21.58;50.12
35806;BME280;21925;44.608;11.580;2023-04-03T12:54:56;101298.97;;;21.36;51.15
35806;BME280;21925;44.608;11.580;2023-04-03T12:57:27;101288.06;;;20.52;48.61
35806;BME280;21925;44.608;11.580;2023-04-03T12:59:56;101295.81;;;21.30;50.00
35806;BME280;21925;44.608;11.580;2023-04-03T13:02:30;101286.25;;;21.28;47.64
35806;BME280;21925;44.608;11.580;2023-04-03T13:04:58;101286.84;;;20.85;49.18
35806;BME280;21925;44.608;11.580;2023-04-03T13:07:31;101294.97;;;21.40;49.92
35806;BME280;21925;44.608;11.580;2023-04-03T13:12:30;101268.03;;;21.06;49.86
35806;BME280;21925;44.608;11.580;2023-04-03T13:15:02;101281.25;;;20.74;48.78
35806;BME280;21925;44.608;11.580;2023-04-03T13:17:30;101281.13;;;21.19;49.24
35806;BME280;21925;44.608;11.580;2023-04-03T13:20:10;101290.94;;;21.45;48.83
35806;BME280;21925;44.608;11.580;2023-04-03T13:22:40;101285.72;;;20.30;48.00
35806;BME280;21925;44.608;11.580;2023-04-03T13:25:11;101256.28;;;20.04;46.88
35806;BME280;21925;44.608;11.580;2023-04-03T13:27:38;101264.59;;;20.43;47.30
35806;BME280;21925;44.608;11.580;2023-04-03T13:30:05;101286.44;;;20.69;48.15
35806;BME280;21925;44.608;11.580;2023-04-03T13:32:32;101254.22;;;20.64;46.97
35806;BME280;21925;44.608;11.580;2023-04-03T13:34:58;101267.44;;;20.18;44.83
35806;BME280;21925;44.608;11.580;2023-04-03T13:37:29;101269.78;;;20.55;45.95
35806;BME280;21925;44.608;11.580;2023-04-03T13:42:36;101271.25;;;20.97;47.63
35806;BME280;21925;44.608;11.580;2023-04-03T13:47:44;101267.81;;;19.79;47.84
35806;BME280;21925;44.608;11.580;2023-04-03T13:52:55;101266.13;;;20.86;48.89
35806;BME280;21925;44.608;11.580;2023-04-03T13:55:27;101273.78;;;20.22;47.43
35806;BME280;21925;44.608;11.580;2023-04-03T13:58:01;101253.91;;;20.10;46.79
35806;BME280;21925;44.608;11.580;2023-04-03T14:00:47;101257.78;;;20.61;47.41
35806;BME280;21925;44.608;11.580;2023-04-03T14:03:40;101247.38;;;20.93;47.81
35806;BME280;21925;44.608;11.580;2023-04-03T14:06:08;101255.91;;;20.09;48.48
35806;BME280;21925;44.608;11.580;2023-04-03T14:08:35;101239.16;;;19.75;47.17
35806;BME280;21925;44.608;11.580;2023-04-03T14:11:01;101263.84;;;20.25;46.60